Time;durP1;ratioP1;P1;durP2;ratioP2;P2;SDS_P1;SDS_P2;PMS_P1;PMS_P2;Temp;Humidity;BMP_temperature;BMP_pressure;BME280_temperature;BME280_humidity;BME280_pressure;Samples;Min_cycle;Max_cycle;Signal;HPM_P1;HPM_P2
2021/09/29 00:00:17;;;;;;;0.30;0.30;;;;;;;16.06;69.64;101650.38;681295;29;22410;-69
2021/09/29 00:00:39;;;;;;;0.20;0.20;;;;;;;16.06;69.52;101649.53;680055;28;45232;-69
2021/09/29 00:01:01;;;;;;;0.25;0.25;;;;;;;16.05;69.36;101651.41;679568;29;45231;-69
2021/09/29 00:01:22;;;;;;;0.30;0.30;;;;;;;16.06;69.42;101647.63;680776;29;21554;-69
2021/09/29 00:01:43;;;;;;;0.30;0.30;;;;;;;16.08;69.53;101651.03;681110;29;22296;-69
2021/09/29 00:02:05;;;;;;;0.20;0.20;;;;;;;16.08;69.66;101647.44;677755;29;21535;-68
2021/09/29 00:02:26;;;;;;;0.30;0.30;;;;;;;16.09;69.68;101646.44;677433;29;44398;-69
2021/09/29 00:02:47;;;;;;;0.30;0.30;;;;;;;16.06;69.42;101644.09;678310;29;22322;-68
2021/09/29 00:03:08;;;;;;;0.20;0.20;;;;;;;16.10;69.55;101653.56;678073;29;21539;-69
2021/09/29 00:03:31;;;;;;;0.30;0.30;;;;;;;16.09;69.38;101649.97;678736;29;22429;-69
2021/09/29 00:03:52;;;;;;;0.20;0.20;;;;;;;16.10;69.51;101648.97;676415;29;93235;-68
2021/09/29 00:04:13;;;;;;;0.20;0.20;;;;;;;16.09;69.56;101652.72;680439;29;22607;-69
2021/09/29 00:04:35;;;;;;;0.30;0.30;;;;;;;16.06;69.64;101647.63;681125;29;21590;-69
2021/09/29 00:04:56;;;;;;;0.30;0.30;;;;;;;16.06;69.58;101650.38;680535;28;22373;-68
2021/09/29 00:05:18;;;;;;;0.20;0.20;;;;;;;16.04;69.54;101644.28;680044;29;46259;-68
2021/09/29 00:05:39;;;;;;;0.30;0.30;;;;;;;16.06;69.76;101649.53;680747;28;22417;-68
2021/09/29 00:06:01;;;;;;;0.30;0.30;;;;;;;16.07;69.65;101648.50;680700;29;22419;-69
2021/09/29 00:06:22;;;;;;;0.28;0.28;;;;;;;16.06;69.66;101646.81;680246;29;44416;-69
2021/09/29 00:06:43;;;;;;;0.30;0.30;;;;;;;16.06;69.88;101649.53;680905;29;22410;-69
2021/09/29 00:07:04;;;;;;;0.30;0.30;;;;;;;16.04;69.75;101645.09;680824;29;22175;-68
2021/09/29 00:07:25;;;;;;;0.20;0.20;;;;;;;16.04;69.73;101641.53;680855;28;23631;-69
2021/09/29 00:07:47;;;;;;;0.20;0.20;;;;;;;16.06;69.75;101654.97;680554;29;22440;-69
2021/09/29 00:08:09;;;;;;;0.30;0.30;;;;;;;16.06;69.84;101647.63;679459;29;44395;-69
2021/09/29 00:08:30;;;;;;;0.20;0.20;;;;;;;16.03;69.68;101646.16;680160;29;44390;-69
2021/09/29 00:08:52;;;;;;;0.20;0.20;;;;;;;16.03;69.59;101648.88;680896;29;23493;-69
2021/09/29 00:09:14;;;;;;;0.30;0.30;;;;;;;16.02;69.85;101646.34;680492;28;22069;-68
2021/09/29 00:09:35;;;;;;;0.20;0.20;;;;;;;16.02;69.89;101644.47;680292;29;44148;-69
2021/09/29 00:09:56;;;;;;;0.20;0.20;;;;;;;16.03;69.87;101646.16;680146;28;46312;-68
2021/09/29 00:10:17;;;;;;;0.30;0.30;;;;;;;16.02;69.83;101646.34;679773;29;21487;-69
2021/09/29 00:10:40;;;;;;;0.30;0.30;;;;;;;16.02;69.93;101643.63;680814;28;21554;-68
2021/09/29 00:11:02;;;;;;;0.20;0.20;;;;;;;16.02;69.75;101646.34;679430;29;44237;-68
2021/09/29 00:11:23;;;;;;;0.30;0.30;;;;;;;16.03;69.80;101645.28;677762;29;46500;-69
2021/09/29 00:11:44;;;;;;;0.30;0.30;;;;;;;16.02;69.87;101649.91;678479;29;22431;-69
2021/09/29 00:12:05;;;;;;;0.20;0.20;;;;;;;16.02;69.82;101641.75;677230;29;44377;-69
2021/09/29 00:12:27;;;;;;;0.30;0.30;;;;;;;16.00;69.74;101648.41;678191;29;23435;-69
2021/09/29 00:12:49;;;;;;;0.30;0.30;;;;;;;15.98;69.88;101643.16;677803;29;46346;-68
2021/09/29 00:13:10;;;;;;;0.20;0.20;;;;;;;15.97;69.77;101646.06;678366;29;22195;-69
2021/09/29 00:13:31;;;;;;;0.30;0.30;;;;;;;15.96;69.84;101647.94;681526;29;21530;-68
2021/09/29 00:13:53;;;;;;;0.30;0.30;;;;;;;15.95;69.97;101643.53;681185;29;21596;-69
2021/09/29 00:14:14;;;;;;;0.20;0.20;;;;;;;15.95;69.93;101639.97;679787;29;44407;-68
2021/09/29 00:14:35;;;;;;;0.30;0.30;;;;;;;15.94;69.98;101641.84;680007;29;46359;-68
2021/09/29 00:14:56;;;;;;;0.30;0.30;;;;;;;15.94;70.04;101641.00;680427;28;22411;-69
2021/09/29 00:15:19;;;;;;;0.20;0.20;;;;;;;15.93;70.26;101645.59;680876;29;23503;-70
2021/09/29 00:15:40;;;;;;;0.22;0.22;;;;;;;15.95;70.24;101645.41;679760;28;46364;-68
2021/09/29 00:16:01;;;;;;;0.30;0.30;;;;;;;15.95;70.40;101643.53;680021;29;42626;-69
2021/09/29 00:16:22;;;;;;;0.20;0.20;;;;;;;15.93;70.26;101639.31;680921;29;22468;-69
2021/09/29 00:16:44;;;;;;;0.20;0.20;;;;;;;15.94;70.19;101641.84;681436;29;21300;-69
2021/09/29 00:17:05;;;;;;;0.30;0.30;;;;;;;15.95;70.19;101642.69;679944;29;47170;-69
2021/09/29 00:17:26;;;;;;;0.20;0.20;;;;;;;15.94;70.30;101641.00;681440;28;1507;-69
2021/09/29 00:17:47;;;;;;;0.20;0.20;;;;;;;15.94;70.07;101639.13;680762;29;22389;-68
2021/09/29 00:18:09;;;;;;;0.30;0.30;;;;;;;15.94;70.06;101643.72;680709;29;22401;-69
2021/09/29 00:18:32;;;;;;;0.30;0.30;;;;;;;15.93;70.06;101645.59;679690;29;46421;-68
2021/09/29 00:18:53;;;;;;;0.20;0.20;;;;;;;15.94;70.20;101643.72;677119;29;69281;-69
2021/09/29 00:19:14;;;;;;;0.30;0.30;;;;;;;15.90;70.13;101637.81;676220;29;23458;-69
2021/09/29 00:19:36;;;;;;;0.25;0.25;;;;;;;15.93;70.08;101642.88;676992;29;23431;-69
2021/09/29 00:19:57;;;;;;;0.20;0.20;;;;;;;15.94;70.17;101635.53;675491;29;47174;-69
2021/09/29 00:20:18;;;;;;;0.30;0.30;;;;;;;15.94;70.32;101643.72;676803;29;22403;-69
2021/09/29 00:20:40;;;;;;;0.30;0.30;;;;;;;15.95;70.13;101645.41;676706;29;23474;-69
2021/09/29 00:21:01;;;;;;;0.20;0.20;;;;;;;15.90;70.17;101640.53;676743;29;67536;-69
2021/09/29 00:21:22;;;;;;;0.25;0.25;;;;;;;15.93;70.16;101647.50;681567;29;1718;-68
2021/09/29 00:21:43;;;;;;;0.30;0.30;;;;;;;15.93;70.33;101639.31;681079;29;21557;-68
2021/09/29 00:22:04;;;;;;;0.20;0.20;;;;;;;15.92;70.28;101638.47;680749;29;22406;-69
2021/09/29 00:22:27;;;;;;;0.20;0.20;;;;;;;15.91;70.16;101646.81;681091;28;20890;-69
2021/09/29 00:22:48;;;;;;;0.30;0.30;;;;;;;15.88;70.13;101634.44;680237;29;44417;-69
2021/09/29 00:23:09;;;;;;;0.20;0.20;;;;;;;15.87;70.40;101634.63;681042;29;22402;-69
2021/09/29 00:23:31;;;;;;;0.20;0.20;;;;;;;15.85;70.38;101645.72;680924;29;23741;-69
2021/09/29 00:23:52;;;;;;;0.30;0.30;;;;;;;15.84;70.48;101641.28;680384;29;46749;-68
2021/09/29 00:24:13;;;;;;;0.20;0.20;;;;;;;15.85;70.27;101643.00;680392;28;23371;-68
2021/09/29 00:24:34;;;;;;;0.20;0.20;;;;;;;15.84;70.51;101647.56;680984;29;20666;-69
2021/09/29 00:24:55;;;;;;;0.28;0.28;;;;;;;15.84;70.75;101649.47;680745;28;22417;-68
2021/09/29 00:25:17;;;;;;;0.20;0.20;;;;;;;15.85;70.71;101638.38;680878;29;21538;-69
2021/09/29 00:25:38;;;;;;;0.20;0.20;;;;;;;15.85;70.65;101643.84;679615;28;44402;-69
2021/09/29 00:25:59;;;;;;;0.30;0.30;;;;;;;15.85;70.65;101643.84;680279;28;23430;-69
2021/09/29 00:26:20;;;;;;;0.30;0.30;;;;;;;15.85;70.66;101643.00;679491;29;46277;-69
2021/09/29 00:26:41;;;;;;;0.20;0.20;;;;;;;15.85;70.60;101641.09;680409;29;22421;-69
2021/09/29 00:27:04;;;;;;;0.30;0.30;;;;;;;15.85;70.59;101643.84;678117;29;23494;-69
2021/09/29 00:27:25;;;;;;;0.25;0.25;;;;;;;15.86;70.84;101644.66;677274;29;46305;-69
2021/09/29 00:27:46;;;;;;;0.20;0.20;;;;;;;15.85;70.84;101637.53;675205;29;21534;-68
2021/09/29 00:28:07;;;;;;;0.22;0.22;;;;;;;15.84;70.99;101636.69;675917;29;22175;-69
2021/09/29 00:28:29;;;;;;;0.30;0.30;;;;;;;15.85;70.84;101643.00;678154;29;19913;-69
2021/09/29 00:28:50;;;;;;;0.20;0.20;;;;;;;15.84;70.93;101638.56;678333;29;46349;-69
2021/09/29 00:29:11;;;;;;;0.20;0.20;;;;;;;15.85;70.87;101640.28;680769;29;21538;-69
2021/09/29 00:29:33;;;;;;;0.30;0.30;;;;;;;15.85;70.71;101637.53;681270;28;22409;-69
2021/09/29 00:29:58;;;;;;;0.20;0.20;;;;;;;15.87;70.82;101637.34;681483;28;44464;-68
2021/09/29 00:30:20;;;;;;;0.20;0.20;;;;;;;15.87;70.72;101635.47;678481;28;138247;-69
2021/09/29 00:30:50;;;;;;;0.30;0.30;;;;;;;15.85;70.86;101638.38;679511;28;46276;-68
2021/09/29 00:31:23;;;;;;;0.20;0.20;;;;;;;15.88;70.81;101634.44;676697;29;136217;-68
2021/09/29 00:31:45;;;;;;;0.30;0.30;;;;;;;15.90;70.71;101631.53;676978;29;137403;-69
2021/09/29 00:32:07;;;;;;;0.30;0.30;;;;;;;15.90;70.68;101624.19;679383;29;44154;-69
2021/09/29 00:32:28;;;;;;;0.20;0.20;;;;;;;15.90;70.74;101634.25;680028;28;46364;-68
2021/09/29 00:32:49;;;;;;;0.30;0.30;;;;;;;15.89;70.78;101635.28;681282;29;22207;-72
2021/09/29 00:33:16;;;;;;;0.30;0.30;;;;;;;15.89;70.69;101633.38;680754;29;21539;-69
2021/09/29 00:33:39;;;;;;;0.20;0.20;;;;;;;15.88;70.63;101625.41;676079;29;161613;-69
2021/09/29 00:34:07;;;;;;;0.30;0.30;;;;;;;15.88;70.68;101633.56;677686;28;92292;-69
2021/09/29 00:34:32;;;;;;;0.20;0.20;;;;;;;15.89;70.71;101633.38;677031;29;137600;-69
2021/09/29 00:34:54;;;;;;;0.20;0.20;;;;;;;15.90;70.81;101632.38;677478;28;114836;-68
2021/09/29 00:35:16;;;;;;;0.30;0.30;;;;;;;15.91;70.63;101630.47;679448;29;46342;-69
2021/09/29 00:35:37;;;;;;;0.28;0.28;;;;;;;15.91;70.74;101628.63;680994;28;23698;-68
2021/09/29 00:35:58;;;;;;;0.20;0.20;;;;;;;15.90;70.81;101634.25;680435;28;21292;-69
2021/09/29 00:36:20;;;;;;;0.30;0.30;;;;;;;15.92;70.88;101627.56;680418;29;44214;-68
2021/09/29 00:36:42;;;;;;;0.30;0.30;;;;;;;15.92;70.77;101632.19;680007;29;46346;-69
2021/09/29 00:37:04;;;;;;;0.20;0.20;;;;;;;15.94;70.87;101630.97;679346;29;67350;-69
2021/09/29 00:37:25;;;;;;;0.30;0.30;;;;;;;15.92;70.83;101626.72;680692;28;24592;-69
2021/09/29 00:37:47;;;;;;;0.30;0.30;;;;;;;15.90;70.72;101628.81;680664;29;21527;-69
2021/09/29 00:38:08;;;;;;;0.20;0.20;;;;;;;15.93;70.68;101628.44;679965;29;46381;-69
2021/09/29 00:38:31;;;;;;;0.22;0.22;;;;;;;15.94;70.94;101628.22;678369;29;22410;-69
2021/09/29 00:38:52;;;;;;;0.30;0.30;;;;;;;15.96;70.90;101630.78;676951;29;69417;-68
2021/09/29 00:39:14;;;;;;;0.20;0.20;;;;;;;15.96;70.93;101628.03;678093;29;21513;-69
2021/09/29 00:39:35;;;;;;;0.30;0.30;;;;;;;15.95;70.81;101627.19;676990;29;44265;-68
2021/09/29 00:39:56;;;;;;;0.30;0.30;;;;;;;15.97;70.99;101627.84;678300;29;24778;-69
2021/09/29 00:40:17;;;;;;;0.20;0.20;;;;;;;15.99;70.81;101627.66;678299;29;24624;-69
2021/09/29 00:40:40;;;;;;;0.20;0.20;;;;;;;15.98;70.76;101629.53;679949;28;45308;-69
2021/09/29 00:41:01;;;;;;;0.30;0.30;;;;;;;15.99;70.68;101623.03;678389;29;89163;-69
2021/09/29 00:41:22;;;;;;;0.20;0.20;;;;;;;16.01;70.94;101623.69;680741;29;22410;-68
2021/09/29 00:41:45;;;;;;;0.20;0.20;;;;;;;16.01;70.97;101620.13;680856;29;22386;-69
2021/09/29 00:42:06;;;;;;;0.30;0.30;;;;;;;16.02;70.90;101619.94;678667;29;69438;-68
2021/09/29 00:42:27;;;;;;;0.28;0.28;;;;;;;16.02;70.76;101624.56;680536;28;21353;-69
2021/09/29 00:42:48;;;;;;;0.20;0.20;;;;;;;16.04;70.94;101617.03;680953;29;22417;-69
2021/09/29 00:43:09;;;;;;;0.30;0.30;;;;;;;16.04;70.91;101619.75;680740;29;22455;-69
2021/09/29 00:43:32;;;;;;;0.28;0.28;;;;;;;16.06;70.95;101622.28;679904;29;46175;-68
2021/09/29 00:43:53;;;;;;;0.20;0.20;;;;;;;16.05;70.81;101616.00;680285;28;45342;-69
2021/09/29 00:44:14;;;;;;;0.30;0.30;;;;;;;16.06;70.70;101622.28;680331;29;22282;-68
2021/09/29 00:44:35;;;;;;;0.30;0.30;;;;;;;16.07;70.77;101619.38;680275;29;21455;-69
2021/09/29 00:44:57;;;;;;;0.20;0.20;;;;;;;16.06;71.03;101617.66;680574;28;23460;-69
2021/09/29 00:45:19;;;;;;;0.30;0.30;;;;;;;16.07;70.69;101613.09;681013;29;22525;-68
2021/09/29 00:45:40;;;;;;;0.30;0.30;;;;;;;16.07;70.73;101613.91;679324;28;44422;-69
2021/09/29 00:46:01;;;;;;;0.20;0.20;;;;;;;16.08;70.84;101618.34;680628;28;22414;-68
2021/09/29 00:46:22;;;;;;;0.20;0.20;;;;;;;16.09;70.89;101611.00;680720;29;23548;-68
2021/09/29 00:46:44;;;;;;;0.30;0.30;;;;;;;16.09;70.75;101611.84;681331;29;22402;-69
2021/09/29 00:47:05;;;;;;;0.20;0.20;;;;;;;16.11;70.70;101615.22;679957;29;46493;-68
2021/09/29 00:47:29;;;;;;;0.20;0.20;;;;;;;16.12;70.75;101611.44;680680;28;22564;-68
2021/09/29 00:47:50;;;;;;;0.30;0.30;;;;;;;16.13;70.89;101613.16;675843;29;91901;-69
2021/09/29 00:48:12;;;;;;;0.30;0.30;;;;;;;16.13;70.79;101615.88;677963;29;21295;-68
2021/09/29 00:48:33;;;;;;;0.28;0.28;;;;;;;16.12;70.78;101610.63;677294;29;45268;-69
2021/09/29 00:48:55;;;;;;;0.30;0.30;;;;;;;16.08;70.79;101604.72;676394;29;23541;-69
2021/09/29 00:49:16;;;;;;;0.20;0.20;;;;;;;16.09;70.59;101602.81;674695;29;46363;-69
2021/09/29 00:49:38;;;;;;;0.20;0.20;;;;;;;16.08;70.79;101612.91;675613;29;23444;-69
2021/09/29 00:49:59;;;;;;;0.30;0.30;;;;;;;16.08;71.01;101609.31;677329;29;45207;-69
2021/09/29 00:50:20;;;;;;;0.28;0.28;;;;;;;16.06;70.73;101606.78;678169;29;21535;-68
2021/09/29 00:50:44;;;;;;;0.20;0.20;;;;;;;16.07;70.94;101608.47;678907;28;15322;-69
2021/09/29 00:51:06;;;;;;;0.30;0.30;;;;;;;16.04;70.91;101606.97;680733;29;23435;-69
2021/09/29 00:51:27;;;;;;;0.30;0.30;;;;;;;16.04;70.97;101606.13;679872;29;44422;-68
2021/09/29 00:51:48;;;;;;;0.20;0.20;;;;;;;16.03;70.91;101605.28;680940;29;23486;-69
2021/09/29 00:52:09;;;;;;;0.30;0.30;;;;;;;16.00;71.07;101608.41;680559;29;23359;-68
2021/09/29 00:52:32;;;;;;;0.30;0.30;;;;;;;15.99;71.11;101603.13;680598;28;22409;-69
2021/09/29 00:52:53;;;;;;;0.20;0.20;;;;;;;16.02;71.11;101605.47;679299;29;67463;-69
2021/09/29 00:53:14;;;;;;;0.30;0.30;;;;;;;16.00;71.28;101602.94;680712;29;22223;-68
2021/09/29 00:53:36;;;;;;;0.30;0.30;;;;;;;16.01;71.14;101603.78;680847;29;21333;-69
2021/09/29 00:53:58;;;;;;;0.20;0.20;;;;;;;15.99;71.11;101600.41;679820;28;46372;-69
2021/09/29 00:54:20;;;;;;;0.30;0.30;;;;;;;15.99;71.20;101603.13;681521;29;1475;-69
2021/09/29 00:54:41;;;;;;;0.30;0.30;;;;;;;15.96;71.38;101598.91;680029;29;45370;-69
2021/09/29 00:55:03;;;;;;;0.20;0.20;;;;;;;15.95;71.30;101605.38;680054;28;22282;-68
2021/09/29 00:55:25;;;;;;;0.20;0.20;;;;;;;15.96;71.23;101604.34;679969;29;46248;-68
2021/09/29 00:55:46;;;;;;;0.30;0.30;;;;;;;15.95;71.33;101605.38;680470;28;44439;-69
2021/09/29 00:56:08;;;;;;;0.20;0.20;;;;;;;15.94;71.50;101595.53;681103;29;22251;-69
2021/09/29 00:56:29;;;;;;;0.20;0.20;;;;;;;15.94;71.31;101606.44;679614;29;44176;-68
2021/09/29 00:56:51;;;;;;;0.30;0.30;;;;;;;15.93;71.42;101603.91;680664;29;23426;-69
2021/09/29 00:57:12;;;;;;;0.20;0.20;;;;;;;15.92;71.40;101600.31;680134;29;44410;-69
2021/09/29 00:57:33;;;;;;;0.20;0.20;;;;;;;15.94;71.45;101608.28;680668;28;23165;-69
2021/09/29 00:57:54;;;;;;;0.30;0.30;;;;;;;15.94;71.57;101597.41;680555;29;23516;-69
2021/09/29 00:58:16;;;;;;;0.20;0.20;;;;;;;15.94;71.44;101602.84;680499;29;22322;-69
2021/09/29 00:58:46;;;;;;;0.30;0.30;;;;;;;15.94;71.44;101605.56;679447;29;60663;-69
2021/09/29 00:59:07;;;;;;;0.30;0.30;;;;;;;15.94;71.46;101601.00;680163;28;23465;-68
2021/09/29 00:59:28;;;;;;;0.20;0.20;;;;;;;15.94;71.62;101592.81;680695;29;21514;-69
2021/09/29 00:59:50;;;;;;;0.20;0.20;;;;;;;15.95;71.59;101604.56;680928;29;23141;-68
2021/09/29 01:00:13;;;;;;;0.30;0.30;;;;;;;15.97;71.69;101599.75;678730;29;89274;-68
2021/09/29 01:00:34;;;;;;;0.20;0.20;;;;;;;15.96;71.81;101606.25;680113;28;44204;-69
2021/09/29 01:00:55;;;;;;;0.20;0.20;;;;;;;15.97;71.68;101602.47;679947;28;22476;-69
2021/09/29 01:01:17;;;;;;;0.30;0.30;;;;;;;15.96;71.54;101609.81;680490;29;21393;-69
2021/09/29 01:01:38;;;;;;;0.22;0.22;;;;;;;15.98;71.40;101601.44;679817;29;44418;-69
2021/09/29 01:01:59;;;;;;;0.20;0.20;;;;;;;15.98;71.45;101598.72;680800;29;23511;-69
2021/09/29 01:02:21;;;;;;;0.30;0.30;;;;;;;15.96;71.54;101595.34;677423;29;23444;-68
2021/09/29 01:02:42;;;;;;;0.28;0.28;;;;;;;15.96;71.58;101598.06;677284;29;44086;-69
2021/09/29 01:03:04;;;;;;;0.20;0.20;;;;;;;15.96;71.55;101601.63;677895;29;23492;-69
2021/09/29 01:03:25;;;;;;;0.28;0.28;;;;;;;15.96;71.53;101604.34;676239;29;69425;-69
2021/09/29 01:03:47;;;;;;;0.30;0.30;;;;;;;15.94;71.57;101606.44;677210;29;45341;-69
2021/09/29 01:04:09;;;;;;;0.20;0.20;;;;;;;15.96;71.58;101607.09;678789;29;21344;-69
2021/09/29 01:04:32;;;;;;;0.25;0.25;;;;;;;15.96;71.48;101598.91;680113;29;46304;-69
2021/09/29 01:04:53;;;;;;;0.30;0.30;;;;;;;15.98;71.61;101601.44;678714;29;68469;-68
2021/09/29 01:05:14;;;;;;;0.20;0.20;;;;;;;15.96;71.62;101596.19;680580;29;22254;-69
2021/09/29 01:05:37;;;;;;;0.25;0.25;;;;;;;15.95;71.61;101605.38;680776;28;23480;-69
2021/09/29 01:06:02;;;;;;;0.30;0.30;;;;;;;15.94;71.71;101594.69;677776;29;69344;-69
2021/09/29 01:06:29;;;;;;;0.20;0.20;;;;;;;15.95;71.44;101596.38;678325;28;90448;-68
2021/09/29 01:06:56;;;;;;;0.30;0.30;;;;;;;15.95;71.51;101593.66;675570;28;161140;-69
2021/09/29 01:07:22;;;;;;;0.20;0.20;;;;;;;15.94;71.64;101595.53;676251;28;137778;-69
2021/09/29 01:07:49;;;;;;;0.20;0.20;;;;;;;15.95;71.50;101590.94;675844;28;138235;-68
2021/09/29 01:08:13;;;;;;;0.30;0.30;;;;;;;15.94;71.64;101594.69;675844;29;159723;-69
2021/09/29 01:08:40;;;;;;;0.20;0.20;;;;;;;15.94;71.56;101594.69;677649;29;113648;-69
2021/09/29 01:09:05;;;;;;;0.20;0.20;;;;;;;15.93;71.48;101590.28;675562;28;161094;-69
2021/09/29 01:09:30;;;;;;;0.20;0.20;;;;;;;15.91;71.59;101584.16;676880;29;138070;-69
2021/09/29 01:10:00;;;;;;;0.20;0.20;;;;;;;15.94;71.37;101591.94;676341;29;137990;-69
2021/09/29 01:10:26;;;;;;;0.30;0.30;;;;;;;15.95;71.43;101591.75;676389;29;137823;-69
2021/09/29 01:10:53;;;;;;;0.20;0.20;;;;;;;15.96;71.28;101592.63;676464;28;137813;-69
2021/09/29 01:11:21;;;;;;;0.28;0.28;;;;;;;15.96;71.38;101585.28;676745;29;138047;-69
2021/09/29 01:11:47;;;;;;;0.20;0.20;;;;;;;15.95;71.23;101591.75;676968;29;138861;-69
2021/09/29 01:12:15;;;;;;;0.20;0.20;;;;;;;15.94;71.25;101584.66;676673;28;137707;-68
2021/09/29 01:12:42;;;;;;;0.30;0.30;;;;;;;15.93;71.09;101587.56;676631;29;137681;-69
2021/09/29 01:13:09;;;;;;;0.20;0.20;;;;;;;15.93;71.25;101588.41;676399;29;137565;-69
2021/09/29 01:13:33;;;;;;;0.20;0.20;;;;;;;15.90;71.12;101579.78;678396;29;79911;-69
2021/09/29 01:14:00;;;;;;;0.20;0.20;;;;;;;15.90;70.99;101582.50;677658;28;115178;-69
2021/09/29 01:14:25;;;;;;;0.20;0.20;;;;;;;15.88;71.05;101585.41;676109;29;138787;-68
2021/09/29 01:14:53;;;;;;;0.28;0.28;;;;;;;15.89;71.19;101588.97;678398;29;92319;-69
2021/09/29 01:15:19;;;;;;;0.20;0.20;;;;;;;15.89;71.31;101580.78;675843;29;158484;-69
2021/09/29 01:15:45;;;;;;;0.28;0.28;;;;;;;15.89;71.22;101581.63;676169;28;138739;-69
2021/09/29 01:16:08;;;;;;;0.30;0.30;;;;;;;15.90;71.33;101585.22;675920;29;157826;-68
2021/09/29 01:16:32;;;;;;;0.20;0.20;;;;;;;15.90;71.36;101586.06;678700;29;67543;-68
2021/09/29 01:16:57;;;;;;;0.30;0.30;;;;;;;15.90;71.18;101579.78;679435;29;60983;-69
2021/09/29 01:17:19;;;;;;;0.30;0.30;;;;;;;15.91;71.31;101585.03;678373;28;92225;-68
2021/09/29 01:17:45;;;;;;;0.20;0.20;;;;;;;15.90;71.27;101579.78;679294;29;46320;-69
2021/09/29 01:18:08;;;;;;;0.20;0.20;;;;;;;15.91;71.10;101578.72;676489;29;138169;-69
2021/09/29 01:18:33;;;;;;;0.30;0.30;;;;;;;15.92;71.29;101580.41;679020;29;70362;-68
2021/09/29 01:18:56;;;;;;;0.20;0.20;;;;;;;15.93;71.21;101576.66;677565;28;114748;-69
2021/09/29 01:19:34;;;;;;;0.30;0.30;;;;;;;15.92;71.15;101578.53;679240;29;69255;-68
2021/09/29 01:20:03;;;;;;;0.20;0.20;;;;;;;15.92;71.09;101578.53;676482;29;130713;-69
2021/09/29 01:20:27;;;;;;;0.30;0.30;;;;;;;15.91;71.07;101570.53;679565;29;65530;-68
2021/09/29 01:20:53;;;;;;;0.20;0.20;;;;;;;15.93;71.15;101574.78;677961;28;91922;-69
2021/09/29 01:21:15;;;;;;;0.20;0.20;;;;;;;15.95;71.10;101574.59;676988;29;138068;-69
2021/09/29 01:21:43;;;;;;;0.30;0.30;;;;;;;15.95;70.99;101571.84;679005;29;69577;-68
2021/09/29 01:22:09;;;;;;;0.20;0.20;;;;;;;15.95;70.94;101572.69;676655;29;136187;-69
2021/09/29 01:22:55;;;;;;;0.20;0.20;;;;;;;15.95;70.85;101577.31;676500;28;139417;-69
2021/09/29 01:23:31;;;;;;;0.20;0.20;;;;;;;15.94;70.82;101568.31;676681;29;136015;-68
2021/09/29 01:24:01;;;;;;;0.30;0.30;;;;;;;15.96;70.91;101573.56;676687;29;137971;-69
2021/09/29 01:24:29;;;;;;;0.20;0.20;;;;;;;15.96;70.95;101568.09;676473;29;138233;-69
2021/09/29 01:24:54;;;;;;;0.22;0.22;;;;;;;15.96;70.65;101573.56;675947;29;160846;-68
2021/09/29 01:25:20;;;;;;;0.20;0.20;;;;;;;15.97;70.91;101570.63;677829;29;114525;-69
2021/09/29 01:25:49;;;;;;;0.20;0.20;;;;;;;15.99;70.91;101575.91;675256;28;159396;-68
2021/09/29 01:26:17;;;;;;;0.30;0.30;;;;;;;16.00;70.73;101566.66;676825;29;138099;-69
2021/09/29 01:26:39;;;;;;;0.20;0.20;;;;;;;15.98;70.68;101566.03;676769;29;138267;-68
2021/09/29 01:27:01;;;;;;;0.20;0.20;;;;;;;15.98;70.48;101564.13;679852;29;46340;-68
2021/09/29 01:27:23;;;;;;;0.30;0.30;;;;;;;15.97;70.64;101565.19;679973;28;44376;-68
2021/09/29 01:27:46;;;;;;;0.20;0.20;;;;;;;15.96;70.61;101562.66;679961;29;46300;-68
2021/09/29 01:28:08;;;;;;;0.20;0.20;;;;;;;15.96;70.49;101563.50;678711;29;69349;-69
2021/09/29 01:28:30;;;;;;;0.30;0.30;;;;;;;15.93;70.55;101563.03;680891;29;22429;-69
2021/09/29 01:28:54;;;;;;;0.20;0.20;;;;;;;15.93;70.34;101561.16;679334;29;69464;-68
2021/09/29 01:29:20;;;;;;;0.20;0.20;;;;;;;15.94;70.53;101564.72;678215;29;90370;-69
2021/09/29 01:29:41;;;;;;;0.30;0.30;;;;;;;15.95;70.53;101567.25;676937;29;137860;-69
2021/09/29 01:30:04;;;;;;;0.20;0.20;;;;;;;15.96;70.76;101562.66;680340;29;21598;-69
2021/09/29 01:30:26;;;;;;;0.20;0.20;;;;;;;15.97;70.55;101562.47;678810;29;69539;-68
2021/09/29 01:30:47;;;;;;;0.30;0.30;;;;;;;15.98;70.84;101564.13;679840;28;22421;-69
2021/09/29 01:31:09;;;;;;;0.20;0.20;;;;;;;15.98;70.67;101563.31;679602;29;45293;-68
2021/09/29 01:31:31;;;;;;;0.20;0.20;;;;;;;15.97;70.48;101561.59;680727;29;21562;-68
2021/09/29 01:31:53;;;;;;;0.30;0.30;;;;;;;15.98;70.42;101566.03;680615;29;23024;-69
2021/09/29 01:32:14;;;;;;;0.20;0.20;;;;;;;15.96;70.62;101563.50;680516;28;22402;-69
2021/09/29 01:32:35;;;;;;;0.20;0.20;;;;;;;15.96;70.51;101562.66;680771;29;21296;-69
2021/09/29 01:32:56;;;;;;;0.30;0.30;;;;;;;15.97;70.55;101559.75;680863;29;22551;-69
2021/09/29 01:33:18;;;;;;;0.25;0.25;;;;;;;15.97;70.39;101559.75;680806;29;22418;-69
2021/09/29 01:33:41;;;;;;;0.20;0.20;;;;;;;15.96;70.44;101563.50;679746;29;47466;-68
2021/09/29 01:34:02;;;;;;;0.30;0.30;;;;;;;15.94;70.52;101554.69;679349;28;68221;-69
2021/09/29 01:34:23;;;;;;;0.30;0.30;;;;;;;15.92;70.38;101556.72;679151;29;46283;-68
2021/09/29 01:34:47;;;;;;;0.20;0.20;;;;;;;15.91;70.39;101555.06;678321;29;22378;-69
2021/09/29 01:35:08;;;;;;;0.30;0.30;;;;;;;15.91;70.54;101559.66;675854;29;70202;-68
2021/09/29 01:35:30;;;;;;;0.30;0.30;;;;;;;15.91;70.69;101549.63;677880;29;22386;-69
2021/09/29 01:35:51;;;;;;;0.20;0.20;;;;;;;15.91;70.62;101554.19;676648;29;46384;-69
2021/09/29 01:36:13;;;;;;;0.30;0.30;;;;;;;15.91;70.52;101556.91;677991;29;23439;-68
2021/09/29 01:36:34;;;;;;;0.30;0.30;;;;;;;15.91;70.67;101555.06;676122;29;45277;-69
2021/09/29 01:36:55;;;;;;;0.20;0.20;;;;;;;15.90;70.69;101553.38;678779;29;23498;-69
2021/09/29 01:37:17;;;;;;;0.30;0.30;;;;;;;15.89;70.63;101559.00;678497;29;46287;-69
2021/09/29 01:37:40;;;;;;;0.30;0.30;;;;;;;15.89;70.65;101559.00;678651;29;23417;-69
2021/09/29 01:38:01;;;;;;;0.22;0.22;;;;;;;15.87;70.64;101556.47;677245;29;70128;-68
2021/09/29 01:38:23;;;;;;;0.25;0.25;;;;;;;15.88;70.61;101557.31;679362;29;22375;-68
2021/09/29 01:38:47;;;;;;;0.30;0.30;;;;;;;15.88;70.72;101555.44;680122;29;46308;-69
2021/09/29 01:39:10;;;;;;;0.22;0.22;;;;;;;15.88;70.46;101552.72;678121;28;93089;-68
2021/09/29 01:39:31;;;;;;;0.28;0.28;;;;;;;15.88;70.61;101554.59;679190;29;68484;-69
2021/09/29 01:39:52;;;;;;;0.30;0.30;;;;;;;15.88;70.93;101552.72;680248;29;21561;-69
2021/09/29 01:40:14;;;;;;;0.30;0.30;;;;;;;15.89;70.73;101559.00;680759;29;22389;-69
2021/09/29 01:40:36;;;;;;;0.20;0.20;;;;;;;15.88;70.80;101555.44;679720;28;45048;-69
2021/09/29 01:40:57;;;;;;;0.30;0.30;;;;;;;15.86;70.78;101554.78;679318;28;45281;-69
2021/09/29 01:41:20;;;;;;;0.20;0.20;;;;;;;15.89;70.75;101554.38;680642;29;23415;-68
2021/09/29 01:41:41;;;;;;;0.20;0.20;;;;;;;15.89;70.69;101553.56;680153;29;44085;-69
2021/09/29 01:42:03;;;;;;;0.30;0.30;;;;;;;15.90;70.78;101555.25;679957;29;46443;-69
2021/09/29 01:42:24;;;;;;;0.30;0.30;;;;;;;15.90;71.00;101552.53;679937;28;45262;-69
2021/09/29 01:42:45;;;;;;;0.20;0.20;;;;;;;15.91;70.76;101557.78;680815;29;22410;-69
2021/09/29 01:43:07;;;;;;;0.30;0.30;;;;;;;15.91;70.90;101552.34;677969;29;12907;-69
2021/09/29 01:43:30;;;;;;;0.20;0.20;;;;;;;15.91;70.73;101556.91;678211;29;21552;-69
2021/09/29 01:43:52;;;;;;;0.20;0.20;;;;;;;15.91;70.75;101554.19;676454;29;69575;-69
2021/09/29 01:44:13;;;;;;;0.30;0.30;;;;;;;15.90;70.91;101556.09;677058;29;47482;-69
2021/09/29 01:44:35;;;;;;;0.30;0.30;;;;;;;15.90;70.84;101550.63;677170;29;45237;-69
2021/09/29 01:44:56;;;;;;;0.20;0.20;;;;;;;15.91;70.83;101556.91;677494;29;46328;-69
2021/09/29 01:45:17;;;;;;;0.30;0.30;;;;;;;15.92;70.88;101558.63;680348;29;23498;-68
2021/09/29 01:45:39;;;;;;;0.30;0.30;;;;;;;15.92;70.65;101555.91;679844;28;22736;-69
2021/09/29 01:46:01;;;;;;;0.22;0.22;;;;;;;15.95;70.75;101550.91;680362;28;21499;-69
2021/09/29 01:46:23;;;;;;;0.25;0.25;;;;;;;15.96;70.69;101554.47;679535;29;45285;-68